Time;durP1;ratioP1;P1;durP2;ratioP2;P2;SDS_P1;SDS_P2;PMS_P1;PMS_P2;Temp;Humidity;BMP_temperature;BMP_pressure;BME280_temperature;BME280_humidity;BME280_pressure;Samples;Min_cycle;Max_cycle;Signal;HPM_P1;HPM_P2
2023/06/18 00:01:35;;;;;;;12.18;6.35;;;;;;;-140.66;100.00;55571.53;5134947;27;20027;-73
2023/06/18 00:04:21;;;;;;;11.70;6.95;;;;;;;-140.66;100.00;55571.53;5135999;27;20042;-74
2023/06/18 00:07:06;;;;;;;11.38;6.95;;;;;;;-140.66;100.00;55571.53;5135649;27;20023;-74
2023/06/18 00:09:52;;;;;;;10.90;6.78;;;;;;;-140.66;100.00;55571.53;5134734;27;20045;-74
2023/06/18 00:12:38;;;;;;;12.73;6.57;;;;;;;-140.66;100.00;55571.53;5135763;27;20030;-74
2023/06/18 00:15:24;;;;;;;8.73;7.00;;;;;;;-140.66;100.00;55571.53;5134923;27;20096;-73
2023/06/18 00:18:09;;;;;;;10.45;6.70;;;;;;;-140.66;100.00;55571.53;5134822;27;20096;-73
2023/06/18 00:20:55;;;;;;;9.80;7.18;;;;;;;-140.66;100.00;55571.53;5134932;27;20049;-75
2023/06/18 00:23:41;;;;;;;13.32;7.53;;;;;;;-140.66;100.00;55571.53;5135468;27;20058;-73
2023/06/18 00:26:27;;;;;;;11.95;6.78;;;;;;;-140.66;100.00;55571.53;5134554;27;20027;-73
2023/06/18 00:29:12;;;;;;;9.68;6.65;;;;;;;-140.66;100.00;55571.53;5135115;27;20514;-74
2023/06/18 00:31:58;;;;;;;11.95;7.18;;;;;;;-140.66;100.00;55571.53;5134834;27;20473;-72
2023/06/18 00:34:46;;;;;;;9.82;6.88;;;;;;;-140.66;100.00;55571.53;5135122;27;20096;-74
2023/06/18 00:37:32;;;;;;;10.77;7.00;;;;;;;-140.66;100.00;55571.53;5134189;27;20093;-74
2023/06/18 00:40:18;;;;;;;10.60;6.50;;;;;;;-140.66;100.00;55571.53;5134387;27;20035;-74
2023/06/18 00:43:04;;;;;;;9.43;6.78;;;;;;;-140.66;100.00;55571.53;5119578;28;20466;-72
2023/06/18 00:45:50;;;;;;;10.95;6.88;;;;;;;-140.66;100.00;55571.53;5134479;28;20449;-73
2023/06/18 00:48:36;;;;;;;12.65;7.22;;;;;;;-140.66;100.00;55571.53;5134969;28;20030;-74
2023/06/18 00:51:22;;;;;;;10.13;7.10;;;;;;;-140.66;100.00;55571.53;5134204;28;20426;-74
2023/06/18 00:54:08;;;;;;;10.13;6.82;;;;;;;-140.66;100.00;55571.53;5118744;28;20058;-73
2023/06/18 00:56:55;;;;;;;14.73;7.35;;;;;;;-140.66;100.00;55571.53;5135439;28;20026;-73
2023/06/18 00:59:44;;;;;;;9.38;7.15;;;;;;;-140.66;100.00;55571.53;5134552;28;20471;-74
2023/06/18 01:02:30;;;;;;;10.55;7.20;;;;;;;-140.66;100.00;55571.53;5119867;27;20034;-74
2023/06/18 01:05:16;;;;;;;11.80;7.00;;;;;;;-140.66;100.00;55571.53;5138778;27;20023;-74
2023/06/18 01:08:07;;;;;;;9.68;6.90;;;;;;;-140.66;100.00;55571.53;5139455;27;20019;-73
2023/06/18 01:11:04;;;;;;;11.68;7.38;;;;;;;-140.66;100.00;55571.53;5123337;27;20133;-73
2023/06/18 01:13:52;;;;;;;10.15;7.38;;;;;;;-140.66;100.00;55571.53;5124114;27;20030;-74
2023/06/18 01:16:45;;;;;;;11.20;7.63;;;;;;;-140.66;100.00;55571.53;5137396;27;20042;-74
2023/06/18 01:19:30;;;;;;;11.13;8.15;;;;;;;-140.66;100.00;55571.53;5137540;27;20043;-73
2023/06/18 01:22:26;;;;;;;11.65;7.43;;;;;;;-140.66;100.00;55571.53;5137427;27;20024;-70
2023/06/18 01:25:14;;;;;;;10.38;7.35;;;;;;;-140.66;100.00;55571.53;5149898;27;20034;-72
2023/06/18 01:28:01;;;;;;;13.38;8.45;;;;;;;-140.66;100.00;55571.53;5140024;27;20084;-72
2023/06/18 01:30:48;;;;;;;9.25;7.53;;;;;;;-140.66;100.00;55571.53;5138675;27;20027;-72
2023/06/18 01:33:34;;;;;;;12.05;7.50;;;;;;;-140.66;100.00;55571.53;5138396;27;20031;-73
2023/06/18 01:36:26;;;;;;;10.57;8.23;;;;;;;-140.66;100.00;55571.53;5138231;27;20027;-74
2023/06/18 01:39:24;;;;;;;10.00;7.53;;;;;;;-140.66;100.00;55571.53;5137596;27;20027;-73
2023/06/18 01:42:18;;;;;;;11.52;7.90;;;;;;;-140.66;100.00;55571.53;5137434;27;20342;-74
2023/06/18 01:45:30;;;;;;;12.93;7.85;;;;;;;-140.66;100.00;55571.53;5122715;27;20101;-73
2023/06/18 01:48:20;;;;;;;12.75;8.02;;;;;;;-140.66;100.00;55571.53;5138378;27;20023;-73
2023/06/18 01:51:07;;;;;;;11.05;8.68;;;;;;;-140.66;100.00;55571.53;5137369;27;20019;-74
2023/06/18 01:53:56;;;;;;;10.65;7.32;;;;;;;-140.66;100.00;55571.53;5151093;27;20140;-73
2023/06/18 01:56:41;;;;;;;13.80;8.10;;;;;;;-140.66;100.00;55571.53;5146753;27;20095;-72
2023/06/18 01:59:27;;;;;;;12.25;8.10;;;;;;;-140.66;100.00;55571.53;5150218;27;20043;-73
2023/06/18 02:02:13;;;;;;;13.70;8.07;;;;;;;-140.66;100.00;55571.53;5135758;27;20038;-73
2023/06/18 02:04:59;;;;;;;12.13;8.18;;;;;;;-140.66;100.00;55571.53;5137450;27;20030;-73
2023/06/18 02:07:45;;;;;;;10.93;8.30;;;;;;;-140.66;100.00;55571.53;5136735;27;20034;-73
2023/06/18 02:10:30;;;;;;;12.57;7.88;;;;;;;-140.66;100.00;55571.53;5136626;27;20084;-74
2023/06/18 02:13:16;;;;;;;12.95;8.10;;;;;;;-140.66;100.00;55571.53;5136683;27;20019;-73
2023/06/18 02:16:02;;;;;;;11.85;7.93;;;;;;;-140.66;100.00;55571.53;5137317;27;20020;-73
2023/06/18 02:18:48;;;;;;;11.70;7.45;;;;;;;-140.66;100.00;55571.53;5136384;27;20058;-73
2023/06/18 02:21:34;;;;;;;10.07;8.00;;;;;;;-140.66;100.00;55571.53;5136334;27;20449;-74
2023/06/18 02:24:20;;;;;;;10.93;7.85;;;;;;;-140.66;100.00;55571.53;5136978;27;20517;-73
2023/06/18 02:27:06;;;;;;;16.33;9.07;;;;;;;-140.66;100.00;55571.53;5137173;27;20057;-74
2023/06/18 02:29:51;;;;;;;13.88;8.43;;;;;;;-140.66;100.00;55571.53;5136866;27;20114;-73
2023/06/18 02:32:39;;;;;;;16.63;9.50;;;;;;;-140.66;100.00;55571.53;5136892;27;20015;-74
2023/06/18 02:35:28;;;;;;;11.90;9.63;;;;;;;-140.66;100.00;55571.53;5136431;27;20027;-73
2023/06/18 02:38:14;;;;;;;21.17;9.77;;;;;;;-140.66;100.00;55571.53;5122136;27;20482;-72
2023/06/18 02:41:00;;;;;;;21.60;10.32;;;;;;;-140.66;100.00;55571.53;5136001;27;20091;-74
2023/06/18 02:43:49;;;;;;;13.25;9.43;;;;;;;-140.66;100.00;55571.53;5136922;27;20023;-74
2023/06/18 02:46:34;;;;;;;15.75;10.02;;;;;;;-140.66;100.00;55571.53;5136434;27;20054;-74
2023/06/18 02:49:20;;;;;;;17.65;9.93;;;;;;;-140.66;100.00;55571.53;5136354;27;20023;-73
2023/06/18 02:52:06;;;;;;;12.40;9.32;;;;;;;-140.66;100.00;55571.53;5135954;27;20106;-73
2023/06/18 02:54:52;;;;;;;11.13;9.43;;;;;;;-140.66;100.00;55571.53;5136964;27;20083;-73
2023/06/18 02:57:39;;;;;;;11.32;8.73;;;;;;;-140.66;100.00;55571.53;5135861;27;20031;-74
2023/06/18 03:00:24;;;;;;;13.32;10.18;;;;;;;-140.66;100.00;55571.53;5135615;27;20060;-73
2023/06/18 03:03:11;;;;;;;12.45;9.15;;;;;;;-140.66;100.00;55571.53;5136358;27;20484;-74
2023/06/18 03:05:57;;;;;;;9.88;8.50;;;;;;;-140.66;100.00;55571.53;5136313;27;20072;-73
2023/06/18 03:08:43;;;;;;;17.50;9.48;;;;;;;-140.66;100.00;55571.53;5136593;27;20031;-74
2023/06/18 03:11:29;;;;;;;14.07;8.95;;;;;;;-140.66;100.00;55571.53;5135809;27;20027;-74
2023/06/18 03:14:14;;;;;;;12.38;9.18;;;;;;;-140.66;100.00;55571.53;5121464;27;20122;-73
2023/06/18 03:17:00;;;;;;;11.70;8.82;;;;;;;-140.66;100.00;55571.53;5136153;27;20038;-75
2023/06/18 03:19:46;;;;;;;14.98;9.23;;;;;;;-140.66;100.00;55571.53;5135894;27;20100;-74
2023/06/18 03:22:32;;;;;;;14.38;8.63;;;;;;;-140.66;100.00;55571.53;5135908;27;20027;-74
2023/06/18 03:25:19;;;;;;;11.18;8.80;;;;;;;-140.66;100.00;55571.53;5135302;27;20031;-73
2023/06/18 03:28:05;;;;;;;12.20;8.20;;;;;;;-140.66;100.00;55571.53;5136235;27;20023;-73
2023/06/18 03:30:51;;;;;;;11.20;8.18;;;;;;;-140.66;100.00;55571.53;5121503;27;20367;-73
2023/06/18 03:33:37;;;;;;;11.38;8.98;;;;;;;-140.66;100.00;55571.53;5121694;27;20119;-73
2023/06/18 03:36:23;;;;;;;14.70;8.93;;;;;;;-140.66;100.00;55571.53;5136233;27;20034;-73
2023/06/18 03:39:09;;;;;;;12.68;8.80;;;;;;;-140.66;100.00;55571.53;5134937;27;20042;-72
2023/06/18 03:41:55;;;;;;;12.55;8.70;;;;;;;-140.66;100.00;55571.53;5135034;27;20475;-72
2023/06/18 03:44:41;;;;;;;12.65;8.57;;;;;;;-140.66;100.00;55571.53;5121491;27;20023;-74
2023/06/18 03:47:26;;;;;;;15.68;9.38;;;;;;;-140.66;100.00;55571.53;5135257;27;20027;-73
2023/06/18 03:50:13;;;;;;;12.60;8.82;;;;;;;-140.66;100.00;55571.53;5121082;27;20080;-73
2023/06/18 03:52:58;;;;;;;12.23;9.35;;;;;;;-140.66;100.00;55571.53;5135966;27;20027;-73
2023/06/18 03:55:44;;;;;;;13.02;9.38;;;;;;;-140.66;100.00;55571.53;5134513;27;20456;-73
2023/06/18 03:58:30;;;;;;;13.77;9.18;;;;;;;-140.66;100.00;55571.53;5134429;27;20471;-75
2023/06/18 04:01:16;;;;;;;14.70;9.95;;;;;;;-140.66;100.00;55571.53;5135011;27;20038;-75
2023/06/18 04:04:02;;;;;;;13.70;9.27;;;;;;;-140.66;100.00;55571.53;5134706;27;20027;-74
2023/06/18 04:06:48;;;;;;;14.95;9.63;;;;;;;-140.66;100.00;55571.53;5120031;27;20451;-74
2023/06/18 04:09:33;;;;;;;13.57;9.50;;;;;;;-140.66;100.00;55571.53;5134545;27;20064;-73
2023/06/18 04:12:19;;;;;;;12.68;9.20;;;;;;;-140.66;100.00;55571.53;5134345;27;20046;-74
2023/06/18 04:15:06;;;;;;;12.93;9.95;;;;;;;-140.66;100.00;55571.53;5120175;27;20465;-73
2023/06/18 04:17:52;;;;;;;11.05;8.82;;;;;;;-140.66;100.00;55571.53;5119566;27;20380;-72
2023/06/18 04:20:37;;;;;;;12.63;10.15;;;;;;;-140.66;100.00;55571.53;5119598;27;20047;-74
2023/06/18 04:23:23;;;;;;;18.05;10.18;;;;;;;-140.66;100.00;55571.53;5134704;27;20019;-74
2023/06/18 04:26:09;;;;;;;13.90;11.10;;;;;;;-140.66;100.00;55571.53;5119225;27;20023;-74
2023/06/18 04:28:55;;;;;;;18.73;11.65;;;;;;;-140.66;100.00;55571.53;5134045;27;20061;-73
2023/06/18 04:31:40;;;;;;;13.88;10.90;;;;;;;-140.66;100.00;55571.53;5134531;27;20026;-74
2023/06/18 04:34:26;;;;;;;13.77;11.15;;;;;;;-140.66;100.00;55571.53;5134631;27;20034;-74
2023/06/18 04:37:12;;;;;;;12.15;10.88;;;;;;;-140.66;100.00;55571.53;5133988;27;20038;-74
2023/06/18 04:39:57;;;;;;;15.23;11.15;;;;;;;-140.66;100.00;55571.53;5134604;27;20171;-73
2023/06/18 04:42:43;;;;;;;15.07;11.13;;;;;;;-140.66;100.00;55571.53;5134443;27;20038;-74
2023/06/18 04:45:29;;;;;;;15.55;11.35;;;;;;;-140.66;100.00;55571.53;5134691;28;20037;-74
2023/06/18 04:48:15;;;;;;;18.48;11.93;;;;;;;-140.66;100.00;55571.53;5139208;28;20015;-72
2023/06/18 04:51:01;;;;;;;12.38;10.73;;;;;;;-140.66;100.00;55571.53;5125069;28;20456;-74
2023/06/18 04:53:46;;;;;;;14.75;10.55;;;;;;;-140.66;100.00;55571.53;5134545;28;20462;-72
2023/06/18 04:56:32;;;;;;;19.83;11.32;;;;;;;-140.66;100.00;55571.53;5119409;28;20066;-73
2023/06/18 04:59:19;;;;;;;15.00;11.73;;;;;;;-140.66;100.00;55571.53;5134518;28;20031;-73
2023/06/18 05:02:06;;;;;;;14.77;11.80;;;;;;;-140.66;100.00;55571.53;5133607;28;20092;-74
2023/06/18 05:04:52;;;;;;;16.48;12.18;;;;;;;-140.66;100.00;55571.53;5133842;28;20023;-73
2023/06/18 05:07:37;;;;;;;17.30;11.70;;;;;;;-140.66;100.00;55571.53;5134220;28;20023;-74
2023/06/18 05:10:23;;;;;;;16.35;11.60;;;;;;;-140.66;100.00;55571.53;5119479;28;20035;-73
2023/06/18 05:13:09;;;;;;;15.02;11.60;;;;;;;-140.66;100.00;55571.53;5136007;28;20098;-74
2023/06/18 05:15:55;;;;;;;19.52;11.50;;;;;;;-140.66;100.00;55571.53;5145235;28;20096;-73
2023/06/18 05:18:40;;;;;;;14.98;11.50;;;;;;;-140.66;100.00;55571.53;5119974;27;20058;-73
2023/06/18 05:21:26;;;;;;;14.77;11.48;;;;;;;-140.66;100.00;55571.53;5133331;28;20042;-73
2023/06/18 05:24:12;;;;;;;19.58;12.30;;;;;;;-140.66;100.00;55571.53;5133819;28;20038;-73
2023/06/18 05:26:57;;;;;;;13.77;11.75;;;;;;;-140.66;100.00;55571.53;5133259;28;20387;-74
2023/06/18 05:29:43;;;;;;;16.83;11.45;;;;;;;-140.66;100.00;55571.53;5135866;28;20019;-74
2023/06/18 05:32:29;;;;;;;19.83;12.55;;;;;;;-140.66;100.00;55571.53;5137932;28;20057;-73
2023/06/18 05:35:14;;;;;;;16.25;12.05;;;;;;;-140.66;100.00;55571.53;5137725;28;20467;-75
2023/06/18 05:38:00;;;;;;;15.38;11.98;;;;;;;-140.66;100.00;55571.53;5137205;28;20023;-73
2023/06/18 05:40:46;;;;;;;19.75;12.75;;;;;;;-140.66;100.00;55571.53;5137838;28;20133;-74
2023/06/18 05:43:32;;;;;;;16.88;12.10;;;;;;;-140.66;100.00;55571.53;5137522;28;20491;-73
2023/06/18 05:46:18;;;;;;;18.40;12.50;;;;;;;-140.66;100.00;55571.53;5136368;28;20027;-72
2023/06/18 05:49:03;;;;;;;15.63;12.50;;;;;;;-140.66;100.00;55571.53;5137121;27;20023;-73
2023/06/18 05:51:49;;;;;;;15.43;12.02;;;;;;;-140.66;100.00;55571.53;5140280;27;20023;-73
2023/06/18 05:54:35;;;;;;;18.67;12.18;;;;;;;-140.66;100.00;55571.53;5138874;27;20015;-73
2023/06/18 05:57:21;;;;;;;19.40;13.45;;;;;;;-140.66;100.00;55571.53;5122721;27;20054;-75
2023/06/18 06:00:08;;;;;;;18.00;12.45;;;;;;;-140.66;100.00;55571.53;5137600;27;20035;-74
2023/06/18 06:02:53;;;;;;;20.13;13.93;;;;;;;-140.66;100.00;55571.53;5137604;27;20105;-72
2023/06/18 06:05:39;;;;;;;19.13;12.38;;;;;;;-140.66;100.00;55571.53;5137555;27;20359;-73
2023/06/18 06:08:25;;;;;;;21.13;13.63;;;;;;;-140.66;100.00;55571.53;5136821;27;20019;-73
2023/06/18 06:11:10;;;;;;;22.55;14.52;;;;;;;-140.66;100.00;55571.53;5137636;27;20382;-72
2023/06/18 06:13:58;;;;;;;20.10;14.40;;;;;;;-140.66;100.00;55571.53;5137246;27;20115;-73
2023/06/18 06:16:44;;;;;;;17.13;14.20;;;;;;;-140.66;100.00;55571.53;5136847;27;20054;-74
2023/06/18 06:19:30;;;;;;;18.35;13.52;;;;;;;-140.66;100.00;55571.53;5136877;27;20101;-73
2023/06/18 06:22:15;;;;;;;20.45;16.10;;;;;;;-140.66;100.00;55571.53;5136308;27;20026;-73
2023/06/18 06:25:01;;;;;;;21.33;13.48;;;;;;;-140.66;100.00;55571.53;5122836;27;20436;-74
2023/06/18 06:27:47;;;;;;;20.95;14.63;;;;;;;-140.66;100.00;55571.53;5136765;27;20402;-73
2023/06/18 06:30:32;;;;;;;25.15;15.23;;;;;;;-140.66;100.00;55571.53;5136752;27;20027;-74
2023/06/18 06:33:19;;;;;;;22.02;14.20;;;;;;;-140.66;100.00;55571.53;5137086;27;20019;-73
2023/06/18 06:36:04;;;;;;;25.33;15.00;;;;;;;-140.66;100.00;55571.53;5136746;27;20023;-73
2023/06/18 06:38:50;;;;;;;17.95;13.32;;;;;;;-140.66;100.00;55571.53;5136782;27;20290;-72
2023/06/18 06:41:36;;;;;;;18.13;13.38;;;;;;;-140.66;100.00;55571.53;5136477;27;20023;-74
2023/06/18 06:44:22;;;;;;;22.20;14.60;;;;;;;-140.66;100.00;55571.53;5136127;27;20076;-73
2023/06/18 06:47:07;;;;;;;17.98;13.75;;;;;;;-140.66;100.00;55571.53;5136797;27;20023;-73
2023/06/18 06:49:53;;;;;;;16.45;13.52;;;;;;;-140.66;100.00;55571.53;5136586;27;20023;-73
2023/06/18 06:52:39;;;;;;;20.95;13.88;;;;;;;-140.66;100.00;55571.53;5137001;27;20487;-73
2023/06/18 06:55:24;;;;;;;21.23;14.57;;;;;;;-140.66;100.00;55571.53;5136718;27;20035;-74
2023/06/18 06:58:10;;;;;;;16.63;13.50;;;;;;;-140.66;100.00;55571.53;5135828;27;20364;-74
2023/06/18 07:00:56;;;;;;;24.38;13.65;;;;;;;-140.66;100.00;55571.53;5134762;27;20041;-72
2023/06/18 07:03:42;;;;;;;22.25;13.52;;;;;;;-140.66;100.00;55571.53;5136240;27;20118;-73
2023/06/18 07:06:27;;;;;;;17.23;13.02;;;;;;;-140.66;100.00;55571.53;5135687;27;20038;-73
2023/06/18 07:09:13;;;;;;;25.02;15.00;;;;;;;-140.66;100.00;55571.53;5136123;27;20030;-74
2023/06/18 07:11:59;;;;;;;19.17;13.27;;;;;;;-140.66;100.00;55571.53;5121933;27;20389;-75
2023/06/18 07:14:44;;;;;;;19.48;13.48;;;;;;;-140.66;100.00;55571.53;5135904;27;20031;-72
2023/06/18 07:17:30;;;;;;;22.20;15.27;;;;;;;-140.66;100.00;55571.53;5135701;27;20361;-74
2023/06/18 07:20:16;;;;;;;19.25;13.65;;;;;;;-140.66;100.00;55571.53;5135815;27;20051;-73
2023/06/18 07:23:01;;;;;;;16.75;14.30;;;;;;;-140.66;100.00;55571.53;5136229;27;20400;-73
2023/06/18 07:25:47;;;;;;;16.58;12.88;;;;;;;-140.66;100.00;55571.53;5135952;27;20463;-70
2023/06/18 07:28:33;;;;;;;15.90;12.95;;;;;;;-140.66;100.00;55571.53;5135596;27;20156;-72
2023/06/18 07:31:19;;;;;;;19.83;14.25;;;;;;;-140.66;100.00;55571.53;5134869;27;20027;-73
2023/06/18 07:34:05;;;;;;;17.27;13.43;;;;;;;-140.66;100.00;55571.53;5135114;27;20058;-72
2023/06/18 07:36:50;;;;;;;18.05;13.43;;;;;;;-140.66;100.00;55571.53;5135443;27;20051;-74
2023/06/18 07:39:36;;;;;;;17.90;13.38;;;;;;;-140.66;100.00;55571.53;5134693;27;20058;-73
2023/06/18 07:42:22;;;;;;;18.45;12.73;;;;;;;-140.66;100.00;55571.53;5135486;27;20046;-73
2023/06/18 07:45:08;;;;;;;15.80;12.35;;;;;;;-140.66;100.00;55571.53;5135466;27;20042;-73
2023/06/18 07:47:54;;;;;;;17.38;13.13;;;;;;;-140.66;100.00;55571.53;5120108;27;20097;-73
2023/06/18 07:50:40;;;;;;;17.63;13.15;;;;;;;-140.66;100.00;55571.53;5120234;27;20031;-72
2023/06/18 07:53:26;;;;;;;17.83;14.13;;;;;;;-140.66;100.00;55571.53;5120240;27;20553;-73
2023/06/18 07:56:12;;;;;;;18.73;13.68;;;;;;;-140.66;100.00;55571.53;5135082;27;20451;-73
2023/06/18 07:58:57;;;;;;;14.95;12.57;;;;;;;-140.66;100.00;55571.53;5134796;27;20035;-73
2023/06/18 08:01:43;;;;;;;18.00;12.73;;;;;;;-140.66;100.00;55571.53;5122033;27;20027;-73
2023/06/18 08:04:29;;;;;;;15.38;12.48;;;;;;;-140.66;100.00;55571.53;5137119;27;20357;-73
2023/06/18 08:07:15;;;;;;;19.20;12.60;;;;;;;-140.66;100.00;55571.53;5120051;27;20115;-72
2023/06/18 08:10:01;;;;;;;21.48;12.68;;;;;;;-140.66;100.00;55571.53;5136851;27;20031;-72
2023/06/18 08:12:46;;;;;;;17.73;13.20;;;;;;;-140.66;100.00;55571.53;5134601;27;20441;-72
2023/06/18 08:15:32;;;;;;;16.55;12.45;;;;;;;-140.66;100.00;55571.53;5123215;27;20035;-71
2023/06/18 08:18:18;;;;;;;14.82;11.60;;;;;;;-140.66;100.00;55571.53;5138477;27;20066;-74
2023/06/18 08:21:04;;;;;;;16.88;11.20;;;;;;;-140.66;100.00;55571.53;5154346;27;20095;-73
2023/06/18 08:23:50;;;;;;;15.90;11.15;;;;;;;-140.66;100.00;55571.53;5140043;27;20433;-73
2023/06/18 08:26:36;;;;;;;14.07;10.50;;;;;;;-140.66;100.00;55571.53;5135566;27;20030;-74
2023/06/18 08:29:22;;;;;;;18.13;11.38;;;;;;;-140.66;100.00;55571.53;5134441;27;20027;-73
2023/06/18 08:32:08;;;;;;;13.50;10.45;;;;;;;-140.66;100.00;55571.53;5135611;27;20030;-73
2023/06/18 08:34:54;;;;;;;14.38;11.35;;;;;;;-140.66;100.00;55571.53;5135068;27;20388;-72
2023/06/18 08:37:40;;;;;;;14.38;10.40;;;;;;;-140.66;100.00;55571.53;5119500;27;20066;-72
2023/06/18 08:40:30;;;;;;;12.13;10.00;;;;;;;-140.66;100.00;55571.53;5133919;27;20054;-73
2023/06/18 08:43:21;;;;;;;12.02;9.77;;;;;;;-140.66;100.00;55571.53;5134735;27;20090;-72
2023/06/18 08:46:11;;;;;;;14.55;10.35;;;;;;;-140.66;100.00;55571.53;5134970;27;20436;-71
2023/06/18 08:49:02;;;;;;;14.23;9.40;;;;;;;-140.66;100.00;55571.53;5119539;28;20023;-71
2023/06/18 08:51:53;;;;;;;10.38;9.13;;;;;;;-140.66;100.00;55571.53;5137229;28;20023;-73
2023/06/18 08:54:38;;;;;;;13.32;9.90;;;;;;;-140.66;100.00;55571.53;5148484;28;20023;-72
2023/06/18 08:57:48;;;;;;;13.50;9.77;;;;;;;-140.66;100.00;55571.53;5139207;28;20055;-73
2023/06/18 09:00:35;;;;;;;11.45;9.82;;;;;;;-140.66;100.00;55571.53;5134156;28;20031;-74
2023/06/18 09:03:21;;;;;;;10.85;9.25;;;;;;;-140.66;100.00;55571.53;5133659;28;20026;-74
2023/06/18 09:06:07;;;;;;;12.07;9.77;;;;;;;-140.66;100.00;55571.53;5119291;28;20042;-74
2023/06/18 09:08:54;;;;;;;17.92;10.65;;;;;;;-140.66;100.00;55571.53;5119528;28;20066;-73
2023/06/18 09:11:40;;;;;;;10.65;8.85;;;;;;;-140.66;100.00;55571.53;5119622;28;20038;-75
2023/06/18 09:14:26;;;;;;;12.50;8.95;;;;;;;-140.66;100.00;55571.53;5134777;28;20023;-75
2023/06/18 09:17:11;;;;;;;11.27;8.70;;;;;;;-140.66;100.00;55571.53;5134132;28;20109;-72
2023/06/18 09:19:58;;;;;;;12.30;9.35;;;;;;;-140.66;100.00;55571.53;5132911;28;20054;-72
2023/06/18 09:22:45;;;;;;;10.88;8.90;;;;;;;-140.66;100.00;55571.53;5133823;28;20027;-72
2023/06/18 09:25:33;;;;;;;14.68;9.02;;;;;;;-140.66;100.00;55571.53;5138089;27;20030;-72
2023/06/18 09:28:20;;;;;;;14.43;9.07;;;;;;;-140.66;100.00;55571.53;5138675;27;20105;-72
2023/06/18 09:31:06;;;;;;;11.98;9.40;;;;;;;-140.66;100.00;55571.53;5122813;27;20031;-74
2023/06/18 09:33:52;;;;;;;11.52;8.27;;;;;;;-140.66;100.00;55571.53;5123466;27;20417;-72
2023/06/18 09:36:42;;;;;;;11.98;8.68;;;;;;;-140.66;100.00;55571.53;5138173;27;20506;-74
2023/06/18 09:39:27;;;;;;;12.75;9.85;;;;;;;-140.66;100.00;55571.53;5138043;27;20034;-75
2023/06/18 09:42:13;;;;;;;13.63;9.00;;;;;;;-140.66;100.00;55571.53;5138261;27;20073;-78
2023/06/18 09:45:00;;;;;;;12.43;9.40;;;;;;;-140.66;100.00;55571.53;5123358;27;20026;-74
2023/06/18 09:47:47;;;;;;;12.80;8.93;;;;;;;-140.66;100.00;55571.53;5138184;27;20027;-74
2023/06/18 09:50:33;;;;;;;12.40;8.80;;;;;;;-140.66;100.00;55571.53;5123361;27;20039;-76
2023/06/18 09:53:19;;;;;;;11.43;8.32;;;;;;;-140.66;100.00;55571.53;5137244;27;20114;-76
2023/06/18 09:56:14;;;;;;;12.75;8.20;;;;;;;-140.66;100.00;55571.53;5138004;27;20053;-74
2023/06/18 09:59:01;;;;;;;10.02;8.05;;;;;;;-140.66;100.00;55571.53;5136903;27;20031;-75
2023/06/18 10:01:47;;;;;;;11.57;7.80;;;;;;;-140.66;100.00;55571.53;5137787;27;20086;-74
2023/06/18 10:04:33;;;;;;;13.70;8.27;;;;;;;-140.66;100.00;55571.53;5136667;27;20031;-74
2023/06/18 10:07:20;;;;;;;11.02;8.18;;;;;;;-140.66;100.00;55571.53;5137989;27;20088;-76
2023/06/18 10:10:15;;;;;;;8.77;7.75;;;;;;;-140.66;100.00;55571.53;5136890;27;20027;-75
2023/06/18 10:13:06;;;;;;;8.95;7.63;;;;;;;-140.66;100.00;55571.53;5122469;27;20034;-76
2023/06/18 10:15:53;;;;;;;11.23;7.82;;;;;;;-140.66;100.00;55571.53;5136209;27;20026;-71
2023/06/18 10:18:45;;;;;;;8.75;7.38;;;;;;;-140.66;100.00;55571.53;5106109;27;20019;-74
2023/06/18 10:21:47;;;;;;;8.95;7.50;;;;;;;-140.66;100.00;55571.53;5128879;27;20023;-74
2023/06/18 10:24:46;;;;;;;8.73;7.25;;;;;;;-140.66;100.00;55571.53;5135863;27;20033;-73
2023/06/18 10:27:34;;;;;;;11.27;7.57;;;;;;;-140.66;100.00;55571.53;5137376;27;20496;-76
2023/06/18 10:30:20;;;;;;;12.40;7.57;;;;;;;-140.66;100.00;55571.53;5136156;27;20054;-75
2023/06/18 10:33:06;;;;;;;11.55;7.53;;;;;;;-140.66;100.00;55571.53;5121688;27;20034;-78
2023/06/18 10:35:52;;;;;;;10.52;7.82;;;;;;;-140.66;100.00;55571.53;5135443;27;20034;-77
2023/06/18 10:38:38;;;;;;;12.25;7.25;;;;;;;-140.66;100.00;55571.53;5136848;27;20452;-77
2023/06/18 10:41:25;;;;;;;8.38;7.28;;;;;;;-140.66;100.00;55571.53;5138391;27;20059;-78
2023/06/18 10:44:10;;;;;;;9.40;7.40;;;;;;;-140.66;100.00;55571.53;5137114;27;20046;-77
2023/06/18 10:47:18;;;;;;;14.88;7.47;;;;;;;-140.66;100.00;55571.53;5136861;27;20106;-77
2023/06/18 10:50:07;;;;;;;9.57;6.65;;;;;;;-140.66;100.00;55571.53;5136102;27;20052;-80
2023/06/18 10:52:53;;;;;;;14.02;7.45;;;;;;;-140.66;100.00;55571.53;5136082;27;20015;-78
2023/06/18 10:55:39;;;;;;;12.07;7.70;;;;;;;-140.66;100.00;55571.53;5137457;27;20030;-77
2023/06/18 10:58:33;;;;;;;8.57;6.85;;;;;;;-140.66;100.00;55571.53;5122476;27;20160;-76
2023/06/18 11:01:46;;;;;;;11.38;7.07;;;;;;;-140.66;100.00;55571.53;5136479;27;20072;-76
2023/06/18 11:04:38;;;;;;;14.82;7.53;;;;;;;-140.66;100.00;55571.53;5136460;27;20456;-78
2023/06/18 11:07:24;;;;;;;8.98;6.82;;;;;;;-140.66;100.00;55571.53;5136396;27;20031;-79
2023/06/18 11:10:10;;;;;;;11.77;6.65;;;;;;;-140.66;100.00;55571.53;5136510;27;20022;-78
2023/06/18 11:12:55;;;;;;;13.75;6.15;;;;;;;-140.66;100.00;55571.53;5134810;27;20027;-76
2023/06/18 11:16:10;;;;;;;9.88;6.72;;;;;;;-140.66;100.00;55571.53;5115179;28;20024;-78
2023/06/18 11:19:02;;;;;;;11.90;6.82;;;;;;;-140.66;100.00;55571.53;5120156;27;20066;-73
2023/06/18 11:21:47;;;;;;;9.48;6.72;;;;;;;-140.66;100.00;55571.53;5135657;27;20030;-73
2023/06/18 11:24:34;;;;;;;9.52;6.65;;;;;;;-140.66;100.00;55571.53;5135929;27;20027;-73
2023/06/18 11:27:20;;;;;;;12.27;7.00;;;;;;;-140.66;100.00;55571.53;5137239;27;20031;-74
2023/06/18 11:30:07;;;;;;;8.57;6.60;;;;;;;-140.66;100.00;55571.53;5136716;27;20023;-74
2023/06/18 11:32:53;;;;;;;10.73;6.43;;;;;;;-140.66;100.00;55571.53;5135536;27;20124;-74
2023/06/18 11:35:39;;;;;;;11.90;6.30;;;;;;;-140.66;100.00;55571.53;5135970;27;20038;-73
2023/06/18 11:38:25;;;;;;;10.25;6.30;;;;;;;-140.66;100.00;55571.53;5134733;27;20042;-72
2023/06/18 11:41:11;;;;;;;8.88;5.70;;;;;;;-140.66;100.00;55571.53;5135242;27;20037;-74
2023/06/18 11:43:57;;;;;;;7.72;6.03;;;;;;;-140.66;100.00;55571.53;5135096;27;20038;-77
2023/06/18 11:46:43;;;;;;;8.50;6.32;;;;;;;-140.66;100.00;55571.53;5134468;27;20106;-74
2023/06/18 11:49:28;;;;;;;10.70;6.35;;;;;;;-140.66;100.00;55571.53;5135604;27;20042;-75
2023/06/18 11:52:16;;;;;;;11.15;6.03;;;;;;;-140.66;100.00;55571.53;5136100;27;20176;-76
2023/06/18 11:55:04;;;;;;;11.18;5.68;;;;;;;-140.66;100.00;55571.53;5114786;28;20373;-75
2023/06/18 11:57:50;;;;;;;7.72;5.70;;;;;;;-140.66;100.00;55571.53;5113897;28;20038;-76
2023/06/18 12:00:37;;;;;;;8.55;6.15;;;;;;;-140.66;100.00;55571.53;5114610;28;20027;-76
2023/06/18 12:03:23;;;;;;;9.57;5.95;;;;;;;-140.66;100.00;55571.53;5114370;28;20100;-76
2023/06/18 12:06:16;;;;;;;11.73;6.50;;;;;;;-140.66;100.00;55571.53;5114635;28;20028;-76
2023/06/18 12:09:09;;;;;;;7.32;5.43;;;;;;;-140.66;100.00;55571.53;5100333;28;20330;-74
2023/06/18 12:12:16;;;;;;;7.95;5.15;;;;;;;-140.66;100.00;55571.53;5115119;28;20475;-73
2023/06/18 12:15:30;;;;;;;14.00;5.55;;;;;;;-140.66;100.00;55571.53;5115789;28;20037;-74
2023/06/18 12:18:32;;;;;;;13.05;6.10;;;;;;;-140.66;100.00;55571.53;5115368;28;20073;-73
2023/06/18 12:21:18;;;;;;;8.00;5.50;;;;;;;-140.66;100.00;55571.53;5113955;28;20373;-73
2023/06/18 12:24:05;;;;;;;7.30;5.15;;;;;;;-140.66;100.00;55571.53;5114912;28;20027;-73
2023/06/18 12:26:51;;;;;;;16.10;6.18;;;;;;;-140.66;100.00;55571.53;5115081;28;20119;-73
2023/06/18 12:29:40;;;;;;;10.15;5.68;;;;;;;-140.66;100.00;55571.53;5113747;28;20444;-75